Time;durP1;ratioP1;P1;durP2;ratioP2;P2;SDS_P1;SDS_P2;PMS_P1;PMS_P2;Temp;Humidity;BMP_temperature;BMP_pressure;BME280_temperature;BME280_humidity;BME280_pressure;Samples;Min_cycle;Max_cycle;Signal;HPM_P1;HPM_P2
2022/11/19 00:02:10;;;;;;;13.73;9.07;;;0.60;99.90;;;;;;5133019;27;20256;-76
2022/11/19 00:04:38;;;;;;;12.83;9.30;;;0.60;99.90;;;;;;5132508;27;20207;-70
2022/11/19 00:07:08;;;;;;;14.50;9.33;;;0.60;99.90;;;;;;5132312;27;20199;-71
2022/11/19 00:09:37;;;;;;;13.73;9.27;;;0.60;99.90;;;;;;5128977;27;20187;-70
2022/11/19 00:14:52;;;;;;;16.30;10.80;;;0.60;99.90;;;;;;5111457;28;20235;-71
2022/11/19 00:17:31;;;;;;;15.40;10.03;;;0.60;99.90;;;;;;5124775;28;20323;-71
2022/11/19 00:19:59;;;;;;;17.03;11.43;;;0.60;99.90;;;;;;5131921;28;20192;-72
2022/11/19 00:22:29;;;;;;;18.53;11.00;;;0.60;99.90;;;;;;5132121;28;20282;-72
2022/11/19 00:24:58;;;;;;;19.23;11.50;;;0.60;99.90;;;;;;5132987;28;20198;-71
2022/11/19 00:27:26;;;;;;;17.87;11.63;;;0.70;99.90;;;;;;5132578;28;20207;-70
2022/11/19 00:29:55;;;;;;;19.43;11.40;;;0.70;99.90;;;;;;5113110;28;20206;-71
2022/11/19 00:32:23;;;;;;;15.20;11.33;;;0.80;99.90;;;;;;5131970;28;20217;-71
2022/11/19 00:34:52;;;;;;;20.17;12.37;;;0.80;99.90;;;;;;5132307;27;20575;-72
2022/11/19 00:37:20;;;;;;;20.23;12.53;;;0.70;99.90;;;;;;5136200;27;20241;-71
2022/11/19 00:39:50;;;;;;;19.47;11.63;;;0.70;99.90;;;;;;5136432;27;20237;-71
2022/11/19 00:42:19;;;;;;;16.77;10.70;;;0.70;99.90;;;;;;5135734;27;20638;-71
2022/11/19 00:44:47;;;;;;;17.67;10.87;;;0.70;99.90;;;;;;5135966;27;20537;-70
2022/11/19 00:47:16;;;;;;;15.50;11.03;;;0.80;99.90;;;;;;5117483;27;20194;-70
2022/11/19 00:49:44;;;;;;;17.43;10.67;;;0.80;99.90;;;;;;5130580;27;20191;-70
2022/11/19 00:52:13;;;;;;;15.13;11.00;;;0.80;99.90;;;;;;5116652;28;20242;-70
2022/11/19 00:54:41;;;;;;;18.93;12.17;;;0.80;99.90;;;;;;5116415;28;20233;-70
2022/11/19 00:57:11;;;;;;;18.97;11.40;;;0.80;99.90;;;;;;5116422;28;20188;-69
2022/11/19 00:59:39;;;;;;;16.73;11.87;;;0.80;99.90;;;;;;5116225;28;20196;-70
2022/11/19 01:02:08;;;;;;;17.03;11.50;;;0.70;99.90;;;;;;5116347;28;20192;-70
2022/11/19 01:04:36;;;;;;;16.63;10.47;;;0.70;99.90;;;;;;5116145;28;20567;-70
2022/11/19 01:07:05;;;;;;;17.63;11.47;;;0.70;99.90;;;;;;5116489;28;20584;-70
2022/11/19 01:09:33;;;;;;;16.70;11.77;;;0.80;99.90;;;;;;5116127;28;20683;-70
2022/11/19 01:12:02;;;;;;;17.63;11.77;;;0.80;99.90;;;;;;5116242;28;20214;-71
2022/11/19 01:14:32;;;;;;;17.00;12.23;;;0.70;99.90;;;;;;5115765;28;20660;-70
2022/11/19 01:17:00;;;;;;;17.80;11.77;;;0.70;99.90;;;;;;5116115;28;20195;-70
2022/11/19 01:19:29;;;;;;;14.27;10.57;;;0.80;99.90;;;;;;5115432;28;20285;-69
2022/11/19 01:21:57;;;;;;;18.13;12.20;;;0.90;99.90;;;;;;5115948;28;20235;-70
2022/11/19 01:24:26;;;;;;;17.17;11.40;;;0.90;99.90;;;;;;5115839;28;20191;-70
2022/11/19 01:26:54;;;;;;;20.60;12.53;;;0.90;99.90;;;;;;5115696;28;20206;-70
2022/11/19 01:29:23;;;;;;;20.10;11.93;;;0.80;99.90;;;;;;5115718;28;20203;-70
2022/11/19 01:31:53;;;;;;;17.80;10.67;;;0.80;99.90;;;;;;5115678;28;20191;-70
2022/11/19 01:34:21;;;;;;;15.83;10.80;;;0.80;99.90;;;;;;5115909;28;20200;-70
2022/11/19 01:36:50;;;;;;;13.53;9.33;;;0.80;99.90;;;;;;5115763;28;20210;-70
2022/11/19 01:39:18;;;;;;;17.33;9.57;;;0.70;99.90;;;;;;5115834;28;20306;-72
2022/11/19 01:41:47;;;;;;;14.53;10.30;;;0.70;99.90;;;;;;5115522;28;20196;-72
2022/11/19 01:45:01;;;;;;;11.20;9.10;;;0.70;99.90;;;;;;5115331;28;20275;-74
2022/11/19 01:47:31;;;;;;;14.37;9.67;;;0.70;99.90;;;;;;5052392;28;20207;-72
2022/11/19 01:50:00;;;;;;;13.93;9.50;;;0.70;99.90;;;;;;5052664;28;20198;-73
2022/11/19 01:52:28;;;;;;;13.17;9.17;;;0.60;99.90;;;;;;5052893;28;20228;-71
2022/11/19 01:54:57;;;;;;;17.73;10.60;;;0.60;99.90;;;;;;5052499;28;20202;-71
2022/11/19 01:57:25;;;;;;;12.27;9.13;;;0.70;99.90;;;;;;5052613;28;20297;-70
2022/11/19 01:59:54;;;;;;;12.30;9.00;;;0.70;99.90;;;;;;5052385;28;20233;-70
2022/11/19 02:02:24;;;;;;;13.10;10.07;;;0.60;99.90;;;;;;5052429;28;20444;-70
2022/11/19 02:04:56;;;;;;;15.33;10.80;;;0.60;99.90;;;;;;5052501;28;20362;-70
2022/11/19 02:07:28;;;;;;;15.67;10.57;;;0.70;99.90;;;;;;5052315;28;20197;-70
2022/11/19 02:09:57;;;;;;;19.10;12.23;;;0.70;99.90;;;;;;5052317;28;20711;-70
2022/11/19 02:12:40;;;;;;;19.20;12.00;;;0.70;99.90;;;;;;5052213;28;20212;-70
2022/11/19 02:15:32;;;;;;;17.17;11.47;;;0.70;99.90;;;;;;5034736;28;20695;-71
2022/11/19 02:18:23;;;;;;;18.73;13.53;;;0.70;99.90;;;;;;5052275;28;20659;-70
2022/11/19 02:21:01;;;;;;;18.60;12.20;;;0.70;99.90;;;;;;5052275;28;20198;-69
2022/11/19 02:23:52;;;;;;;16.57;11.53;;;0.70;99.90;;;;;;5088074;28;20664;-70
2022/11/19 02:26:57;;;;;;;16.10;9.87;;;0.70;99.90;;;;;;5114787;28;20187;-71
2022/11/19 02:29:50;;;;;;;13.80;8.77;;;0.70;99.90;;;;;;5051773;28;20229;-72
2022/11/19 02:32:23;;;;;;;17.60;11.77;;;0.80;99.90;;;;;;5051945;28;20207;-70
2022/11/19 02:34:57;;;;;;;22.67;13.83;;;0.80;99.90;;;;;;5051678;28;20208;-69
2022/11/19 02:37:30;;;;;;;22.53;13.90;;;0.80;99.90;;;;;;5051878;28;20275;-70
2022/11/19 02:40:04;;;;;;;19.90;12.17;;;0.90;99.90;;;;;;5051825;28;20811;-70
2022/11/19 02:42:36;;;;;;;24.50;13.07;;;0.80;99.90;;;;;;5051910;28;20289;-70
2022/11/19 02:45:14;;;;;;;19.20;13.37;;;0.80;99.90;;;;;;5051337;28;20236;-69
2022/11/19 02:47:47;;;;;;;21.43;14.13;;;0.80;99.90;;;;;;5051537;28;20194;-70
2022/11/19 02:50:20;;;;;;;25.27;14.67;;;0.80;99.90;;;;;;5051656;28;20578;-70
2022/11/19 02:52:49;;;;;;;14.53;9.77;;;0.80;99.90;;;;;;5051475;28;20206;-70
2022/11/19 02:55:20;;;;;;;12.17;8.23;;;0.80;99.90;;;;;;5051557;28;20544;-70
2022/11/19 02:57:52;;;;;;;11.10;8.13;;;0.80;99.90;;;;;;5050764;28;20256;-70
2022/11/19 03:06:00;;;;;;;10.77;8.50;;;0.70;99.90;;;;;;5073118;28;20206;-69
2022/11/19 03:08:29;;;;;;;12.43;8.20;;;0.70;99.90;;;;;;5114035;28;20187;-70
2022/11/19 03:11:07;;;;;;;9.57;7.43;;;0.70;99.90;;;;;;5114094;28;20195;-70
2022/11/19 03:16:42;;;;;;;11.07;7.73;;;0.80;99.90;;;;;;5113743;28;20260;-70
2022/11/19 03:19:24;;;;;;;10.10;7.93;;;0.80;99.90;;;;;;5113901;28;20247;-72
2022/11/19 03:21:56;;;;;;;11.83;6.27;;;0.80;99.90;;;;;;5113929;28;20196;-70
2022/11/19 03:24:30;;;;;;;9.43;7.57;;;0.70;99.90;;;;;;5113756;28;20203;-70
2022/11/19 03:27:04;;;;;;;9.57;7.23;;;0.70;99.90;;;;;;5113610;28;20223;-70
2022/11/19 03:29:36;;;;;;;11.13;7.73;;;0.60;99.90;;;;;;5113470;28;20197;-70
2022/11/19 03:32:10;;;;;;;11.43;8.40;;;0.60;99.90;;;;;;5113667;28;20237;-70
2022/11/19 03:34:41;;;;;;;12.17;8.20;;;0.70;99.90;;;;;;5113542;28;20195;-69
2022/11/19 03:37:13;;;;;;;9.80;7.70;;;0.80;99.90;;;;;;5113798;28;20195;-70
2022/11/19 03:39:43;;;;;;;10.47;7.63;;;0.80;99.90;;;;;;5113269;28;20626;-70
2022/11/19 03:42:15;;;;;;;10.60;7.73;;;0.90;99.90;;;;;;5113331;28;20661;-70
2022/11/19 03:44:47;;;;;;;11.70;7.70;;;0.90;99.90;;;;;;5112985;28;20257;-70
2022/11/19 03:47:20;;;;;;;11.50;8.20;;;1.00;99.90;;;;;;5113198;28;20203;-70
2022/11/19 03:49:52;;;;;;;9.70;7.70;;;1.10;99.90;;;;;;5113095;28;20215;-71
2022/11/19 03:52:21;;;;;;;19.77;11.13;;;1.00;99.90;;;;;;5113169;28;20191;-71
2022/11/19 03:54:50;;;;;;;13.87;9.43;;;1.00;99.90;;;;;;5113055;28;20249;-72
2022/11/19 03:57:24;;;;;;;10.57;7.40;;;1.00;99.90;;;;;;5113199;28;20188;-70
2022/11/19 04:09:07;;;;;;;9.00;6.00;;;1.00;99.90;;;;;;4838428;29;20606;-71
2022/11/19 04:11:36;;;;;;;9.07;6.40;;;1.00;99.90;;;;;;4806043;29;20207;-70
2022/11/19 04:14:04;;;;;;;14.43;7.63;;;1.00;99.90;;;;;;4817273;29;20219;-70
2022/11/19 04:16:33;;;;;;;15.43;7.87;;;1.00;99.90;;;;;;4823184;29;20567;-70
2022/11/19 04:19:01;;;;;;;7.53;5.67;;;1.00;99.90;;;;;;4806242;29;20234;-72
2022/11/19 04:21:30;;;;;;;10.97;6.37;;;0.90;99.90;;;;;;4805812;29;20211;-71
2022/11/19 04:23:58;;;;;;;15.77;7.50;;;0.90;99.90;;;;;;4806044;29;20206;-70
2022/11/19 04:26:28;;;;;;;17.80;8.60;;;0.90;99.90;;;;;;4806006;29;20206;-71
2022/11/19 04:28:57;;;;;;;15.43;7.27;;;0.80;99.90;;;;;;4819153;29;20202;-71
2022/11/19 04:31:25;;;;;;;21.10;8.80;;;0.80;99.90;;;;;;4824041;29;20212;-70
2022/11/19 04:33:54;;;;;;;13.17;7.53;;;0.80;99.90;;;;;;4824241;29;20571;-70
2022/11/19 04:36:22;;;;;;;10.27;7.27;;;0.80;99.90;;;;;;4823816;29;20212;-71
2022/11/19 04:38:51;;;;;;;8.93;5.50;;;0.80;99.90;;;;;;4823587;29;20669;-70
2022/11/19 04:41:19;;;;;;;10.87;6.93;;;0.80;99.90;;;;;;4823924;29;20210;-69
2022/11/19 04:43:49;;;;;;;15.03;7.80;;;0.90;99.90;;;;;;4807622;29;20206;-71
2022/11/19 04:46:18;;;;;;;8.23;6.23;;;0.90;99.90;;;;;;4809185;29;20623;-71
2022/11/19 04:48:46;;;;;;;8.80;5.83;;;0.90;99.90;;;;;;4810483;29;20685;-71
2022/11/19 04:51:15;;;;;;;8.40;5.80;;;0.90;99.90;;;;;;4805602;29;20213;-69
2022/11/19 04:53:43;;;;;;;7.40;5.83;;;0.90;99.90;;;;;;4805692;29;20206;-73
2022/11/19 04:56:12;;;;;;;8.60;5.60;;;1.00;99.90;;;;;;4796810;29;20575;-70
2022/11/19 04:58:40;;;;;;;5.80;5.00;;;1.00;99.90;;;;;;4823946;29;20568;-70
2022/11/19 05:01:10;;;;;;;7.43;5.33;;;1.20;99.90;;;;;;4823851;29;20607;-70
2022/11/19 05:03:39;;;;;;;8.10;4.63;;;1.30;99.90;;;;;;4823738;29;20217;-72
2022/11/19 05:06:08;;;;;;;6.20;4.60;;;1.50;99.90;;;;;;4823738;29;20198;-72
2022/11/19 05:08:36;;;;;;;5.57;4.77;;;1.50;99.90;;;;;;4823359;29;20236;-70
2022/11/19 05:11:05;;;;;;;7.30;6.53;;;1.60;99.90;;;;;;4811072;29;20218;-70
2022/11/19 05:13:33;;;;;;;11.50;9.63;;;1.60;99.90;;;;;;4805467;29;20221;-71
2022/11/19 05:16:02;;;;;;;8.80;6.93;;;1.70;99.90;;;;;;4805802;29;20210;-71
2022/11/19 05:18:32;;;;;;;9.47;6.77;;;1.70;99.90;;;;;;4805726;29;20206;-72
2022/11/19 05:21:00;;;;;;;8.27;5.87;;;1.80;99.90;;;;;;4805586;29;20225;-71
2022/11/19 05:23:29;;;;;;;8.13;5.83;;;1.80;99.90;;;;;;4808804;29;20199;-71
2022/11/19 05:25:57;;;;;;;10.17;6.30;;;1.80;99.90;;;;;;4808925;29;20214;-75
2022/11/19 05:28:26;;;;;;;9.93;7.50;;;1.80;99.90;;;;;;4808837;29;20291;-73
2022/11/19 05:31:06;;;;;;;9.93;7.60;;;1.80;99.90;;;;;;4808782;29;20725;-70
2022/11/19 05:33:36;;;;;;;9.97;7.63;;;1.80;99.90;;;;;;4808530;29;20202;-72
2022/11/19 05:36:05;;;;;;;9.93;7.87;;;1.80;99.90;;;;;;4808397;29;20305;-72
2022/11/19 05:38:33;;;;;;;11.37;8.13;;;1.80;99.90;;;;;;4807921;29;20306;-70
2022/11/19 05:41:02;;;;;;;11.13;8.10;;;1.80;99.90;;;;;;4820614;29;20237;-70
2022/11/19 05:43:30;;;;;;;9.10;6.80;;;1.80;99.90;;;;;;4818806;29;20236;-72
2022/11/19 05:46:00;;;;;;;12.17;8.07;;;1.80;99.90;;;;;;4815024;29;20206;-70
2022/11/19 05:48:29;;;;;;;12.00;9.40;;;1.80;99.90;;;;;;4808546;29;20211;-73
2022/11/19 05:50:59;;;;;;;14.27;11.77;;;1.80;99.90;;;;;;4808288;29;20287;-71
2022/11/19 05:53:27;;;;;;;16.07;12.33;;;1.80;99.90;;;;;;4806132;29;20235;-70
2022/11/19 05:55:56;;;;;;;12.43;10.47;;;1.80;99.90;;;;;;4826219;29;20780;-71
2022/11/19 05:58:24;;;;;;;11.20;9.70;;;1.80;99.90;;;;;;4826120;29;20209;-71
2022/11/19 06:00:55;;;;;;;14.63;11.20;;;1.80;99.90;;;;;;4827672;29;20217;-71
2022/11/19 06:03:23;;;;;;;16.80;14.67;;;1.80;99.90;;;;;;4820660;29;20670;-72
2022/11/19 06:05:52;;;;;;;18.23;16.00;;;1.80;99.90;;;;;;4808200;29;20346;-72
2022/11/19 06:08:22;;;;;;;32.13;24.20;;;1.80;99.90;;;;;;4807514;29;20245;-71
2022/11/19 06:10:51;;;;;;;24.17;16.23;;;1.80;99.90;;;;;;4809602;29;20197;-72
2022/11/19 06:13:19;;;;;;;46.13;28.47;;;1.70;99.90;;;;;;4826079;29;20229;-70
2022/11/19 06:15:48;;;;;;;127.53;75.70;;;1.70;99.90;;;;;;4826054;29;20202;-70
2022/11/19 06:18:16;;;;;;;97.30;60.27;;;1.60;99.90;;;;;;4825882;29;20206;-71
2022/11/19 06:20:45;;;;;;;102.33;60.10;;;1.50;99.90;;;;;;4820231;29;20242;-69
2022/11/19 06:23:13;;;;;;;88.93;51.83;;;1.40;99.90;;;;;;4807540;29;20254;-70
2022/11/19 06:25:43;;;;;;;58.30;37.27;;;1.40;99.90;;;;;;4791567;29;20203;-71
2022/11/19 06:28:12;;;;;;;48.77;32.27;;;1.40;99.90;;;;;;4807772;29;20207;-71
2022/11/19 06:30:40;;;;;;;38.00;25.53;;;1.40;99.90;;;;;;4807538;29;20301;-71
2022/11/19 06:33:09;;;;;;;29.23;19.63;;;1.40;99.90;;;;;;4812495;29;20214;-72
2022/11/19 06:35:37;;;;;;;33.03;20.50;;;1.40;99.90;;;;;;4822465;29;20214;-71
2022/11/19 06:38:06;;;;;;;29.77;18.70;;;1.40;99.90;;;;;;4807072;29;20265;-71
2022/11/19 06:40:34;;;;;;;34.97;18.87;;;1.40;99.90;;;;;;4817944;29;20234;-71
2022/11/19 06:43:04;;;;;;;39.07;24.27;;;1.40;99.90;;;;;;4817117;29;20209;-70
2022/11/19 06:45:32;;;;;;;39.33;24.03;;;1.30;99.90;;;;;;4810901;29;20221;-72
2022/11/19 06:48:01;;;;;;;42.70;23.10;;;1.30;99.90;;;;;;4843850;29;20235;-72
2022/11/19 06:50:29;;;;;;;42.37;25.30;;;1.30;99.90;;;;;;4844230;29;20234;-71
2022/11/19 06:52:58;;;;;;;41.80;24.70;;;1.20;99.90;;;;;;4843355;29;20296;-72
2022/11/19 06:55:27;;;;;;;37.53;23.87;;;1.20;99.90;;;;;;4843677;29;20213;-71
2022/11/19 06:57:56;;;;;;;37.37;24.17;;;1.20;99.90;;;;;;4840339;29;20216;-71
2022/11/19 07:00:26;;;;;;;31.57;19.47;;;1.20;99.90;;;;;;4817640;29;20229;-70
2022/11/19 07:02:54;;;;;;;31.63;20.17;;;1.10;99.90;;;;;;4839304;29;20214;-70
2022/11/19 07:05:23;;;;;;;29.77;20.70;;;1.10;99.90;;;;;;4843326;29;20236;-70
2022/11/19 07:07:52;;;;;;;32.70;20.93;;;1.00;99.90;;;;;;4842514;29;20233;-70
2022/11/19 07:10:20;;;;;;;46.17;26.10;;;1.00;99.90;;;;;;4832623;29;20298;-69
2022/11/19 07:12:48;;;;;;;41.97;26.67;;;1.00;99.90;;;;;;4824901;29;20696;-70
2022/11/19 07:15:17;;;;;;;51.43;30.53;;;0.90;99.90;;;;;;4825066;29;20206;-70
2022/11/19 07:17:47;;;;;;;55.27;33.20;;;0.90;99.90;;;;;;4824052;29;20617;-71
2022/11/19 07:20:16;;;;;;;65.10;38.13;;;0.90;99.90;;;;;;4810254;29;20666;-70
2022/11/19 07:22:45;;;;;;;49.73;31.17;;;0.90;99.90;;;;;;4808377;29;20668;-70
2022/11/19 07:25:14;;;;;;;29.90;18.63;;;1.00;99.90;;;;;;4810121;29;20213;-71
2022/11/19 07:27:46;;;;;;;36.27;24.00;;;0.90;99.90;;;;;;4806521;29;20221;-71
2022/11/19 07:30:15;;;;;;;38.47;24.53;;;0.90;99.90;;;;;;4806481;29;20293;-71
2022/11/19 07:32:44;;;;;;;33.90;21.53;;;0.90;99.90;;;;;;4823835;29;20231;-72
2022/11/19 07:35:13;;;;;;;34.47;21.40;;;1.00;99.90;;;;;;4824524;29;20211;-71
2022/11/19 07:37:42;;;;;;;31.70;20.70;;;1.00;99.90;;;;;;4824025;29;20212;-70
2022/11/19 07:40:13;;;;;;;50.07;30.43;;;1.10;99.90;;;;;;4824666;29;20284;-70
2022/11/19 07:42:51;;;;;;;75.80;42.53;;;1.10;99.90;;;;;;4817075;29;20237;-70
2022/11/19 07:45:22;;;;;;;178.57;89.77;;;1.10;99.90;;;;;;4812380;29;20336;-71
2022/11/19 07:47:51;;;;;;;86.27;49.57;;;1.10;99.90;;;;;;4817771;29;20213;-70
2022/11/19 07:50:21;;;;;;;64.47;40.93;;;1.10;99.90;;;;;;4807430;29;20300;-70
2022/11/19 07:52:49;;;;;;;72.17;42.63;;;1.20;99.90;;;;;;4824026;29;20213;-70
2022/11/19 07:55:18;;;;;;;59.33;39.80;;;1.20;99.90;;;;;;4814254;29;20226;-70
2022/11/19 07:57:46;;;;;;;62.97;36.90;;;1.20;99.90;;;;;;4841716;29;20702;-72
2022/11/19 08:00:15;;;;;;;61.67;37.37;;;1.20;99.90;;;;;;4842109;29;20212;-69
2022/11/19 08:02:46;;;;;;;51.70;32.70;;;1.20;99.90;;;;;;4842106;29;20232;-69
2022/11/19 08:05:14;;;;;;;45.87;29.67;;;1.20;99.90;;;;;;4842023;29;20217;-70
2022/11/19 08:07:44;;;;;;;47.43;30.87;;;1.30;99.90;;;;;;4825726;29;20719;-70
2022/11/19 08:10:13;;;;;;;46.27;29.80;;;1.30;99.90;;;;;;4830272;29;20210;-70
2022/11/19 08:13:01;;;;;;;44.13;28.47;;;1.40;99.90;;;;;;4829690;29;20247;-70
2022/11/19 08:15:30;;;;;;;49.73;30.10;;;1.40;99.90;;;;;;4818438;29;20305;-70
2022/11/19 08:18:14;;;;;;;52.60;30.63;;;1.50;99.90;;;;;;4834760;29;20567;-71
2022/11/19 08:20:44;;;;;;;76.23;45.57;;;1.50;99.90;;;;;;4841885;29;20219;-69
2022/11/19 08:23:15;;;;;;;56.30;36.03;;;1.50;99.90;;;;;;4841889;29;20218;-70
2022/11/19 08:25:44;;;;;;;56.20;34.90;;;1.50;99.90;;;;;;4841702;29;20201;-69
2022/11/19 08:28:13;;;;;;;65.83;40.50;;;1.40;99.90;;;;;;4841994;29;20193;-70
2022/11/19 08:30:41;;;;;;;126.60;58.33;;;1.30;99.90;;;;;;4825560;29;20293;-69
2022/11/19 08:33:10;;;;;;;415.20;138.43;;;1.40;99.90;;;;;;4841910;29;20204;-73
2022/11/19 08:35:38;;;;;;;185.63;81.43;;;1.40;99.90;;;;;;4841927;29;20787;-70
2022/11/19 08:38:07;;;;;;;153.80;77.60;;;1.50;99.90;;;;;;4841716;29;20224;-71
2022/11/19 08:40:36;;;;;;;92.80;51.73;;;1.50;99.90;;;;;;4841258;29;20221;-73
2022/11/19 08:43:04;;;;;;;57.10;36.93;;;1.60;99.90;;;;;;4841753;29;20721;-73
2022/11/19 08:45:34;;;;;;;48.17;32.57;;;1.60;99.90;;;;;;4830284;29;20751;-73
2022/11/19 08:48:05;;;;;;;41.97;26.20;;;1.70;99.90;;;;;;4823215;29;20669;-70
2022/11/19 08:50:34;;;;;;;32.53;22.23;;;1.70;99.90;;;;;;4830191;29;20203;-71
2022/11/19 08:53:03;;;;;;;198.80;81.67;;;1.60;98.80;;;;;;4813199;29;20708;-71
2022/11/19 08:55:32;;;;;;;39.80;26.40;;;1.40;99.90;;;;;;4804886;29;20203;-72
2022/11/19 08:58:03;;;;;;;200.43;79.93;;;1.40;99.90;;;;;;4808699;29;20218;-71
2022/11/19 09:00:33;;;;;;;80.50;44.83;;;1.50;99.90;;;;;;4808696;29;20631;-72
2022/11/19 09:03:02;;;;;;;70.60;38.83;;;1.60;99.90;;;;;;4808973;29;20280;-71
2022/11/19 09:05:30;;;;;;;48.13;32.47;;;1.70;99.90;;;;;;4816679;29;20201;-70
2022/11/19 09:07:59;;;;;;;35.53;26.30;;;1.80;99.90;;;;;;4808306;29;20273;-72
2022/11/19 09:10:28;;;;;;;38.63;25.43;;;1.90;99.90;;;;;;4808473;29;20215;-71
2022/11/19 09:12:56;;;;;;;69.03;32.17;;;2.00;99.90;;;;;;4808893;29;20212;-73
2022/11/19 09:15:26;;;;;;;64.77;33.83;;;2.10;99.90;;;;;;4808761;29;20220;-71
2022/11/19 09:17:54;;;;;;;55.63;34.07;;;2.20;99.90;;;;;;4829136;29;20304;-72
2022/11/19 09:20:23;;;;;;;50.93;32.10;;;2.20;99.90;;;;;;4844714;29;20213;-72
2022/11/19 09:22:51;;;;;;;42.63;28.83;;;2.20;99.90;;;;;;4844085;29;20240;-72
2022/11/19 09:25:20;;;;;;;42.30;27.50;;;2.20;99.90;;;;;;4814902;29;20249;-71
2022/11/19 09:27:48;;;;;;;35.63;23.87;;;2.20;99.20;;;;;;4826330;29;20214;-72
2022/11/19 09:30:17;;;;;;;83.57;35.50;;;2.20;99.80;;;;;;4818439;29;20297;-72
2022/11/19 09:32:47;;;;;;;36.67;22.30;;;2.20;99.90;;;;;;4808142;29;20199;-69
2022/11/19 09:35:16;;;;;;;52.43;29.73;;;2.20;99.20;;;;;;4808292;29;20210;-70
2022/11/19 09:37:44;;;;;;;80.63;43.20;;;2.20;99.20;;;;;;4807657;29;20214;-70
2022/11/19 09:40:18;;;;;;;59.20;36.50;;;2.20;99.80;;;;;;4807740;29;20745;-71
2022/11/19 09:43:00;;;;;;;37.73;25.90;;;2.20;99.90;;;;;;4819847;29;20235;-71
2022/11/19 09:45:41;;;;;;;39.47;25.33;;;2.30;99.90;;;;;;4811589;29;20200;-71
2022/11/19 09:48:21;;;;;;;35.67;26.10;;;2.40;99.90;;;;;;4841828;29;20211;-69
2022/11/19 09:50:53;;;;;;;39.30;26.80;;;2.30;99.90;;;;;;4816941;29;20205;-71
2022/11/19 09:53:23;;;;;;;43.70;23.83;;;2.30;99.50;;;;;;4824779;29;20215;-70
2022/11/19 09:55:53;;;;;;;41.90;25.57;;;2.40;99.40;;;;;;4812815;29;20215;-70
2022/11/19 09:58:27;;;;;;;40.40;25.57;;;2.40;98.60;;;;;;4808089;29;20745;-70
2022/11/19 10:00:56;;;;;;;45.33;29.00;;;2.50;99.50;;;;;;4803624;29;20268;-70
2022/11/19 10:03:26;;;;;;;33.37;23.57;;;2.50;97.40;;;;;;4811458;29;20305;-69
2022/11/19 10:06:22;;;;;;;56.87;29.47;;;2.50;96.70;;;;;;4823652;29;20312;-70
2022/11/19 10:09:05;;;;;;;42.00;27.50;;;2.50;97.90;;;;;;4824933;29;20237;-71
2022/11/19 10:11:44;;;;;;;133.00;70.60;;;2.60;97.10;;;;;;4825551;29;20198;-70
2022/11/19 10:14:29;;;;;;;45.67;26.53;;;2.70;99.90;;;;;;4825803;29;20684;-73
2022/11/19 10:17:08;;;;;;;64.50;43.67;;;2.60;95.90;;;;;;4825736;29;20205;-70
2022/11/19 10:19:47;;;;;;;65.53;45.27;;;2.60;95.80;;;;;;4809026;29;20301;-70
2022/11/19 10:22:22;;;;;;;47.80;30.30;;;2.60;96.80;;;;;;4832232;29;20235;-71
2022/11/19 10:24:56;;;;;;;26.50;18.93;;;2.50;94.70;;;;;;4843537;29;20237;-71
2022/11/19 10:27:32;;;;;;;36.77;23.90;;;2.50;93.80;;;;;;4843456;29;20672;-71
2022/11/19 10:30:04;;;;;;;44.93;28.40;;;2.40;93.20;;;;;;4841905;29;20197;-70
2022/11/19 10:32:38;;;;;;;40.47;24.60;;;2.40;94.40;;;;;;4818973;29;20215;-70
2022/11/19 10:35:15;;;;;;;77.50;38.83;;;2.30;93.30;;;;;;4824996;29;20210;-70
2022/11/19 10:37:53;;;;;;;30.20;20.70;;;2.30;94.40;;;;;;4824847;29;20205;-71
2022/11/19 10:40:24;;;;;;;23.93;18.13;;;2.30;93.30;;;;;;4824927;29;20203;-71
2022/11/19 10:42:55;;;;;;;23.47;17.20;;;2.20;93.00;;;;;;4824738;29;20233;-70
2022/11/19 10:45:26;;;;;;;40.30;23.07;;;2.20;93.50;;;;;;4824874;29;20266;-70
2022/11/19 10:48:01;;;;;;;30.90;19.70;;;2.30;94.20;;;;;;4824770;29;20206;-70
2022/11/19 10:50:37;;;;;;;41.90;25.30;;;2.20;91.90;;;;;;4824714;29;20255;-71
2022/11/19 10:53:12;;;;;;;33.40;21.17;;;2.20;94.90;;;;;;4824578;29;20677;-70
2022/11/19 10:55:43;;;;;;;21.43;14.50;;;2.40;94.50;;;;;;4837913;29;20212;-70
2022/11/19 10:58:17;;;;;;;30.77;18.63;;;2.20;90.30;;;;;;4824834;29;20222;-69
2022/11/19 11:00:47;;;;;;;33.57;20.83;;;2.10;91.40;;;;;;4808349;29;20232;-70
2022/11/19 11:03:23;;;;;;;20.37;14.70;;;2.00;92.30;;;;;;4824502;29;20230;-69
2022/11/19 11:05:58;;;;;;;18.77;12.10;;;1.90;90.60;;;;;;4824602;29;20206;-70
2022/11/19 11:08:27;;;;;;;21.03;15.37;;;1.70;90.40;;;;;;4824160;29;20267;-71
2022/11/19 11:10:56;;;;;;;18.83;14.30;;;1.60;91.40;;;;;;4824607;29;20230;-69
2022/11/19 11:16:25;;;;;;;18.53;14.00;;;1.80;93.90;;;;;;4824402;29;20212;-71
2022/11/19 11:18:56;;;;;;;23.13;15.57;;;1.80;91.50;;;;;;4823736;29;20297;-70
2022/11/19 11:21:34;;;;;;;24.30;16.47;;;1.70;90.80;;;;;;4825842;29;20226;-70
2022/11/19 11:24:04;;;;;;;20.43;13.80;;;1.70;93.70;;;;;;4841948;29;20237;-73
2022/11/19 11:26:36;;;;;;;24.97;15.20;;;1.70;92.10;;;;;;4835409;29;20205;-71
2022/11/19 11:29:23;;;;;;;19.40;13.37;;;1.70;92.30;;;;;;4823845;29;20679;-70
2022/11/19 11:31:52;;;;;;;20.60;14.33;;;1.60;91.60;;;;;;4824161;29;20205;-70
2022/11/19 11:34:32;;;;;;;22.93;15.57;;;1.60;93.10;;;;;;4824174;29;20700;-71
2022/11/19 11:37:05;;;;;;;22.80;14.33;;;1.70;95.00;;;;;;4824198;29;20226;-71
2022/11/19 11:39:36;;;;;;;23.37;14.17;;;1.90;93.00;;;;;;4823918;29;20682;-72
2022/11/19 11:42:10;;;;;;;26.03;15.33;;;1.90;91.70;;;;;;4824089;29;20308;-71
2022/11/19 11:44:51;;;;;;;21.93;15.17;;;1.90;94.60;;;;;;4823979;29;20317;-72
2022/11/19 11:47:22;;;;;;;18.80;13.60;;;2.00;93.50;;;;;;4821007;29;20289;-70
2022/11/19 11:49:59;;;;;;;27.57;18.17;;;1.90;90.40;;;;;;4815031;29;20209;-70
2022/11/19 11:52:34;;;;;;;28.40;16.63;;;1.90;93.20;;;;;;4806316;29;20209;-70
2022/11/19 11:55:04;;;;;;;20.53;14.93;;;1.90;94.20;;;;;;4806387;29;20576;-69
2022/11/19 11:57:34;;;;;;;21.93;14.30;;;2.00;93.50;;;;;;4821711;29;20205;-69
2022/11/19 12:00:22;;;;;;;19.90;14.50;;;2.10;92.80;;;;;;4842028;29;20201;-72
2022/11/19 12:03:01;;;;;;;20.77;14.60;;;2.10;91.70;;;;;;4841518;29;20213;-70
2022/11/19 12:05:38;;;;;;;21.87;15.60;;;2.20;93.10;;;;;;4842263;29;20584;-71
2022/11/19 12:08:19;;;;;;;20.63;14.17;;;2.20;93.80;;;;;;4841812;29;20237;-71
2022/11/19 12:11:00;;;;;;;35.37;21.00;;;2.30;92.50;;;;;;4841638;29;20218;-69
2022/11/19 12:13:52;;;;;;;26.80;17.30;;;2.40;95.00;;;;;;4842171;29;20699;-71
2022/11/19 12:16:41;;;;;;;27.80;18.63;;;2.30;89.70;;;;;;4841566;29;20216;-72
2022/11/19 12:19:45;;;;;;;17.30;12.97;;;2.20;90.70;;;;;;4841805;29;20210;-71
2022/11/19 12:22:24;;;;;;;35.60;21.17;;;2.00;89.90;;;;;;4842088;29;20207;-70
2022/11/19 12:25:20;;;;;;;27.00;17.17;;;1.90;91.60;;;;;;4841850;29;20228;-71
2022/11/19 12:28:09;;;;;;;72.47;35.00;;;2.00;94.20;;;;;;4829976;29;20200;-71
2022/11/19 12:30:46;;;;;;;37.63;21.07;;;2.10;93.70;;;;;;4819733;29;20210;-70
2022/11/19 12:33:39;;;;;;;25.53;16.77;;;2.00;91.60;;;;;;4817435;29;20316;-70
2022/11/19 12:36:14;;;;;;;41.27;20.63;;;2.00;91.70;;;;;;4809074;29;20236;-73
2022/11/19 12:38:53;;;;;;;47.57;24.93;;;2.00;92.50;;;;;;4805526;29;20312;-71
2022/11/19 12:41:54;;;;;;;49.20;28.67;;;2.00;93.30;;;;;;4808569;29;20207;-72
2022/11/19 12:44:37;;;;;;;42.17;27.00;;;2.10;91.90;;;;;;4808460;29;20230;-71
2022/11/19 12:47:17;;;;;;;29.93;20.53;;;2.10;91.60;;;;;;4808570;29;20670;-72
2022/11/19 12:49:56;;;;;;;25.13;17.10;;;2.00;91.40;;;;;;4808412;29;20218;-70
2022/11/19 12:52:50;;;;;;;34.30;17.23;;;1.90;90.90;;;;;;4822389;29;20222;-72
2022/11/19 12:55:25;;;;;;;32.30;18.73;;;2.00;91.40;;;;;;4808626;29;20202;-70
2022/11/19 12:58:03;;;;;;;39.60;23.50;;;2.00;91.40;;;;;;4830371;29;20269;-69
2022/11/19 13:00:35;;;;;;;28.50;17.97;;;2.00;92.60;;;;;;4828123;29;20237;-68
2022/11/19 13:03:13;;;;;;;24.77;16.83;;;1.90;91.60;;;;;;4842133;29;20216;-72
2022/11/19 13:05:47;;;;;;;24.53;15.37;;;1.90;91.50;;;;;;4826387;29;20273;-69
2022/11/19 13:08:21;;;;;;;29.90;18.23;;;1.90;90.60;;;;;;4821784;29;20238;-70
2022/11/19 13:10:57;;;;;;;29.23;19.37;;;1.70;90.80;;;;;;4809444;29;20203;-69
2022/11/19 13:13:30;;;;;;;38.87;24.03;;;1.80;93.10;;;;;;4826299;29;20206;-71
2022/11/19 13:16:03;;;;;;;45.37;26.53;;;1.90;92.90;;;;;;4809452;29;20223;-73
2022/11/19 13:18:35;;;;;;;50.77;27.20;;;1.90;92.80;;;;;;4808099;29;20297;-71
2022/11/19 13:21:08;;;;;;;35.47;22.50;;;2.00;92.60;;;;;;4808259;29;20202;-68
2022/11/19 13:23:40;;;;;;;29.53;18.53;;;2.00;92.10;;;;;;4825923;29;20270;-71
2022/11/19 13:26:13;;;;;;;26.43;18.63;;;2.00;91.30;;;;;;4825858;29;20209;-72
2022/11/19 13:28:48;;;;;;;20.90;15.60;;;1.90;90.60;;;;;;4825659;29;20217;-70
2022/11/19 13:31:29;;;;;;;23.67;15.53;;;1.80;91.70;;;;;;4825821;29;20233;-70